Time;durP1;ratioP1;P1;durP2;ratioP2;P2;SDS_P1;SDS_P2;PMS_P1;PMS_P2;Temp;Humidity;BMP_temperature;BMP_pressure;BME280_temperature;BME280_humidity;BME280_pressure;Samples;Min_cycle;Max_cycle;Signal;HPM_P1;HPM_P2
2023/01/17 00:00:20;;;;;;;7.78;2.72;;;5.50;99.90;;;;;;5052475;28;20033;-71
2023/01/17 00:02:45;;;;;;;7.88;2.80;;;5.60;99.90;;;;;;5054862;28;20091;-71
2023/01/17 00:10:40;;;;;;;6.47;2.35;;;5.50;99.90;;;;;;5052151;28;20028;-71
2023/01/17 00:13:05;;;;;;;6.97;2.92;;;5.40;99.90;;;;;;5050400;28;20087;-71
2023/01/17 00:15:31;;;;;;;7.53;2.63;;;5.50;99.90;;;;;;5050137;28;20477;-71
2023/01/17 00:17:57;;;;;;;5.30;2.10;;;5.50;99.90;;;;;;5051263;28;20033;-71
2023/01/17 00:26:14;;;;;;;9.32;2.70;;;5.30;99.90;;;;;;5053010;28;20167;-72
2023/01/17 01:35:54;;;;;;;3.50;1.45;;;5.10;99.90;;;;;;5057019;28;20036;-71
2023/01/17 01:38:24;;;;;;;2.63;1.80;;;5.00;99.90;;;;;;5052860;28;20017;-71
2023/01/17 01:40:53;;;;;;;4.07;1.48;;;5.00;99.90;;;;;;5042864;28;20032;-72
2023/01/17 01:43:38;;;;;;;3.30;1.40;;;5.00;99.90;;;;;;5060872;28;20032;-72
2023/01/17 01:46:04;;;;;;;3.88;1.33;;;5.10;99.90;;;;;;5060753;28;20029;-71
2023/01/17 01:48:41;;;;;;;3.42;1.23;;;5.00;99.90;;;;;;5049091;28;20033;-71
2023/01/17 01:51:10;;;;;;;6.47;1.35;;;5.00;99.90;;;;;;5054978;28;20048;-72
2023/01/17 01:53:41;;;;;;;1.30;0.93;;;4.90;99.90;;;;;;5063234;28;20037;-72
2023/01/17 01:56:10;;;;;;;2.63;0.63;;;4.90;99.90;;;;;;5052689;28;20472;-72
2023/01/17 01:58:37;;;;;;;4.45;0.60;;;4.90;99.90;;;;;;5056077;28;20594;-72
2023/01/17 02:01:06;;;;;;;4.45;0.80;;;4.90;99.90;;;;;;5052101;28;20468;-72
2023/01/17 02:03:33;;;;;;;1.08;0.40;;;4.90;99.90;;;;;;5064074;28;20442;-72
2023/01/17 02:06:06;;;;;;;2.20;0.45;;;4.70;99.90;;;;;;5066147;28;20039;-72
2023/01/17 02:08:33;;;;;;;3.38;0.73;;;4.80;99.90;;;;;;5059488;28;20026;-72
2023/01/17 02:10:59;;;;;;;3.10;0.80;;;4.80;99.90;;;;;;5066180;28;20111;-73
2023/01/17 02:13:27;;;;;;;1.00;0.60;;;4.70;99.90;;;;;;5057524;28;20093;-72
2023/01/17 02:16:13;;;;;;;3.38;0.70;;;4.70;99.90;;;;;;5061948;28;20020;-72
2023/01/17 02:18:48;;;;;;;2.08;0.63;;;4.80;99.90;;;;;;5062534;28;20025;-72
2023/01/17 02:21:28;;;;;;;0.98;0.47;;;4.80;99.90;;;;;;5062144;28;20119;-72
2023/01/17 02:23:54;;;;;;;1.15;0.50;;;4.80;99.90;;;;;;5054412;28;20039;-72
2023/01/17 02:26:40;;;;;;;4.55;1.23;;;4.80;99.90;;;;;;5064386;28;20032;-72
2023/01/17 02:29:33;;;;;;;3.38;0.60;;;4.70;99.90;;;;;;5050263;28;20485;-72
2023/01/17 02:32:30;;;;;;;2.58;0.52;;;4.60;99.90;;;;;;5053898;28;20036;-72
2023/01/17 02:35:06;;;;;;;3.80;0.77;;;4.60;99.90;;;;;;5053230;28;20067;-72
2023/01/17 02:37:51;;;;;;;1.67;0.50;;;4.70;99.90;;;;;;5052426;28;20025;-72
2023/01/17 02:40:33;;;;;;;2.05;0.70;;;4.70;99.90;;;;;;5053845;28;20436;-72
2023/01/17 02:43:04;;;;;;;3.03;0.70;;;4.60;99.90;;;;;;5054214;28;20040;-72
2023/01/17 02:45:30;;;;;;;3.08;0.82;;;4.50;99.90;;;;;;5052399;28;20017;-72
2023/01/17 02:47:55;;;;;;;3.38;0.85;;;4.50;99.90;;;;;;5063108;28;20445;-72
2023/01/17 02:50:25;;;;;;;2.30;0.90;;;4.50;99.90;;;;;;5060423;28;20039;-72
2023/01/17 02:53:36;;;;;;;1.45;0.98;;;4.60;99.90;;;;;;5049958;28;20123;-72
2023/01/17 02:56:18;;;;;;;2.05;1.00;;;4.40;99.90;;;;;;5050604;28;20037;-72
2023/01/17 02:59:05;;;;;;;6.13;1.20;;;4.50;99.90;;;;;;5056942;28;20036;-72
2023/01/17 03:02:11;;;;;;;2.53;1.45;;;4.50;99.90;;;;;;5052796;28;20029;-73
2023/01/17 03:04:39;;;;;;;2.15;1.10;;;4.60;99.90;;;;;;5056222;28;20040;-73
2023/01/17 03:07:15;;;;;;;3.42;1.25;;;4.70;99.90;;;;;;5051090;28;20024;-72
2023/01/17 03:09:42;;;;;;;1.70;0.95;;;4.60;99.90;;;;;;5058709;28;20047;-72
2023/01/17 03:12:08;;;;;;;3.67;1.20;;;4.60;99.90;;;;;;5065241;28;20472;-72
2023/01/17 03:14:34;;;;;;;1.80;0.73;;;4.70;99.90;;;;;;5050866;28;20500;-72
2023/01/17 03:17:00;;;;;;;4.80;0.77;;;4.60;99.90;;;;;;5056890;28;20100;-73
2023/01/17 03:19:25;;;;;;;3.33;0.90;;;4.60;99.90;;;;;;5052849;28;20083;-72
2023/01/17 03:21:51;;;;;;;2.58;0.70;;;4.50;99.90;;;;;;5063294;28;20021;-72
2023/01/17 03:24:16;;;;;;;4.82;0.80;;;4.50;99.90;;;;;;5064600;28;20033;-73
2023/01/17 03:26:46;;;;;;;2.40;0.50;;;4.50;99.90;;;;;;5052984;28;20060;-72
2023/01/17 03:29:13;;;;;;;2.58;0.57;;;4.50;99.90;;;;;;5057245;28;20025;-73
2023/01/17 03:31:38;;;;;;;3.42;1.00;;;4.40;99.90;;;;;;5061145;28;20396;-72
2023/01/17 03:34:04;;;;;;;4.03;1.17;;;4.40;99.90;;;;;;5063911;28;20035;-73
2023/01/17 03:36:30;;;;;;;2.05;1.15;;;4.40;99.90;;;;;;5062354;28;20067;-72
2023/01/17 03:38:55;;;;;;;4.93;1.80;;;4.50;99.90;;;;;;5059164;28;20136;-72
2023/01/17 03:41:21;;;;;;;4.70;2.60;;;4.60;99.90;;;;;;5055995;28;20048;-72
2023/01/17 03:43:46;;;;;;;5.03;3.38;;;4.60;99.90;;;;;;5054095;28;20029;-73
2023/01/17 03:46:24;;;;;;;5.25;3.63;;;4.60;99.90;;;;;;5054556;28;20032;-73
2023/01/17 03:48:50;;;;;;;10.07;4.40;;;4.60;99.90;;;;;;5052814;28;20017;-72
2023/01/17 03:51:16;;;;;;;8.23;4.97;;;4.70;99.90;;;;;;5057711;28;20021;-72
2023/01/17 03:53:42;;;;;;;9.63;5.88;;;4.80;99.90;;;;;;5055916;28;20036;-72
2023/01/17 03:56:08;;;;;;;12.25;7.15;;;4.70;99.90;;;;;;5054388;28;20024;-72
2023/01/17 03:58:34;;;;;;;13.20;7.85;;;4.60;99.90;;;;;;5057654;28;20025;-73
2023/01/17 04:00:59;;;;;;;14.52;8.20;;;4.60;99.90;;;;;;5052460;28;20036;-72
2023/01/17 04:03:25;;;;;;;15.48;8.90;;;4.50;99.90;;;;;;5065583;28;20029;-72
2023/01/17 04:05:50;;;;;;;17.27;9.82;;;4.50;99.90;;;;;;5049307;28;20025;-73
2023/01/17 04:08:16;;;;;;;17.13;8.93;;;4.50;99.90;;;;;;5053622;28;20021;-73
2023/01/17 04:10:42;;;;;;;18.25;10.13;;;4.50;99.90;;;;;;5059157;28;20032;-72
2023/01/17 04:13:07;;;;;;;18.85;10.00;;;4.50;99.90;;;;;;5055555;28;20025;-72
2023/01/17 04:15:33;;;;;;;17.10;9.45;;;4.40;99.90;;;;;;5054717;28;20539;-72
2023/01/17 04:17:59;;;;;;;16.30;9.45;;;4.50;99.90;;;;;;5056147;28;20070;-73
2023/01/17 04:20:38;;;;;;;17.70;9.45;;;4.40;99.90;;;;;;5065118;28;20112;-73
2023/01/17 04:23:04;;;;;;;21.02;9.95;;;4.50;99.90;;;;;;5054836;28;20036;-73
2023/01/17 04:25:30;;;;;;;19.60;10.57;;;4.60;99.90;;;;;;5054072;28;20017;-72
2023/01/17 04:28:00;;;;;;;16.70;10.20;;;4.60;99.90;;;;;;5051230;28;20032;-72
2023/01/17 04:30:27;;;;;;;22.15;10.10;;;4.50;99.90;;;;;;5049713;28;20030;-72
2023/01/17 04:32:53;;;;;;;19.27;9.45;;;4.50;99.90;;;;;;5064189;28;20576;-72
2023/01/17 04:35:19;;;;;;;21.92;9.98;;;4.40;99.90;;;;;;5053012;28;20354;-72
2023/01/17 04:37:45;;;;;;;19.17;9.27;;;4.40;99.90;;;;;;5063188;28;20047;-72
2023/01/17 04:40:11;;;;;;;20.73;9.40;;;4.40;99.90;;;;;;5058604;28;20069;-72
2023/01/17 04:42:37;;;;;;;18.63;9.82;;;4.30;99.90;;;;;;5062835;28;20048;-73
2023/01/17 04:45:03;;;;;;;19.85;9.23;;;4.20;99.90;;;;;;5056523;28;20595;-72
2023/01/17 04:47:28;;;;;;;22.77;9.88;;;4.40;99.90;;;;;;5052500;28;20021;-72
2023/01/17 04:49:54;;;;;;;15.10;8.70;;;4.30;99.90;;;;;;5058438;28;20019;-73
2023/01/17 04:52:20;;;;;;;12.60;7.97;;;4.20;99.90;;;;;;5058691;28;20048;-73
2023/01/17 04:54:48;;;;;;;19.13;9.50;;;4.10;99.90;;;;;;5058491;28;20025;-73
2023/01/17 04:57:17;;;;;;;22.10;8.75;;;4.20;99.90;;;;;;5059851;28;20407;-73
2023/01/17 04:59:44;;;;;;;17.40;8.15;;;4.10;99.90;;;;;;5049473;28;20039;-73
2023/01/17 05:02:10;;;;;;;19.75;9.35;;;4.10;99.90;;;;;;5051277;28;20346;-73
2023/01/17 05:04:36;;;;;;;17.90;7.93;;;4.00;99.90;;;;;;5062060;28;20024;-73
2023/01/17 05:07:02;;;;;;;22.88;8.95;;;4.00;99.90;;;;;;5058278;28;20423;-73
2023/01/17 05:09:28;;;;;;;18.42;7.88;;;4.10;99.90;;;;;;5055965;28;20397;-73
2023/01/17 05:11:54;;;;;;;20.42;8.40;;;4.10;99.90;;;;;;5058812;28;20020;-73
2023/01/17 05:14:20;;;;;;;18.35;8.15;;;3.90;99.90;;;;;;5049604;28;20111;-73
2023/01/17 05:16:46;;;;;;;16.95;7.90;;;3.90;99.90;;;;;;5054867;28;20029;-73
2023/01/17 05:19:12;;;;;;;17.45;8.07;;;3.90;99.90;;;;;;5057878;28;20485;-73
2023/01/17 05:21:37;;;;;;;15.80;8.50;;;3.90;99.90;;;;;;5054358;28;20029;-73
2023/01/17 05:24:04;;;;;;;17.67;7.97;;;3.90;99.90;;;;;;5057266;28;20428;-73
2023/01/17 05:26:29;;;;;;;15.07;7.93;;;3.80;99.90;;;;;;5063446;28;20021;-73
2023/01/17 05:28:55;;;;;;;17.85;8.23;;;3.80;99.90;;;;;;5049490;28;20024;-73
2023/01/17 05:31:20;;;;;;;13.68;8.18;;;3.80;99.90;;;;;;5050996;28;20025;-73
2023/01/17 05:33:46;;;;;;;20.98;8.63;;;3.90;99.90;;;;;;5059218;28;20107;-74
2023/01/17 05:36:11;;;;;;;17.77;8.98;;;3.80;99.90;;;;;;5056922;28;20490;-73
2023/01/17 05:38:37;;;;;;;26.00;9.00;;;3.90;99.90;;;;;;5059562;28;20040;-73
2023/01/17 05:41:03;;;;;;;16.40;9.40;;;3.80;99.90;;;;;;5048746;28;20488;-73
2023/01/17 05:43:30;;;;;;;31.35;11.48;;;3.90;99.90;;;;;;5061264;28;20045;-73
2023/01/17 05:45:55;;;;;;;29.50;12.10;;;3.90;99.90;;;;;;5056119;28;20020;-73
2023/01/17 05:48:21;;;;;;;27.40;13.05;;;3.90;99.90;;;;;;5060370;28;20017;-73
2023/01/17 05:50:47;;;;;;;22.48;12.25;;;3.80;99.90;;;;;;5056181;28;20025;-73
2023/01/17 05:53:14;;;;;;;24.42;11.93;;;3.80;99.90;;;;;;5050835;28;20101;-73
2023/01/17 05:55:41;;;;;;;23.52;12.23;;;3.80;99.90;;;;;;5064164;28;20020;-73
2023/01/17 05:58:10;;;;;;;28.25;12.82;;;3.80;99.90;;;;;;5067184;28;20071;-73
2023/01/17 06:00:36;;;;;;;25.27;12.95;;;3.80;99.90;;;;;;5056214;28;20388;-73
2023/01/17 06:03:02;;;;;;;27.38;12.45;;;3.80;99.90;;;;;;5056615;28;20029;-74
2023/01/17 06:05:28;;;;;;;28.35;14.15;;;3.80;99.90;;;;;;5062307;28;20485;-73
2023/01/17 06:07:55;;;;;;;30.38;13.73;;;3.70;99.90;;;;;;5057367;28;20024;-73
2023/01/17 06:10:21;;;;;;;31.20;13.68;;;3.90;99.90;;;;;;5056552;28;20029;-73
2023/01/17 06:12:47;;;;;;;24.77;12.98;;;3.90;99.90;;;;;;5067647;28;20024;-73
2023/01/17 06:15:14;;;;;;;28.50;14.43;;;3.90;99.90;;;;;;5051477;28;20025;-73
2023/01/17 06:17:40;;;;;;;26.98;13.35;;;3.90;99.90;;;;;;5060718;28;20020;-73
2023/01/17 06:20:07;;;;;;;26.00;13.60;;;3.90;99.90;;;;;;5064641;28;20032;-73
2023/01/17 06:22:33;;;;;;;27.30;13.65;;;3.90;99.90;;;;;;5057055;28;20029;-73
2023/01/17 06:24:59;;;;;;;35.35;14.63;;;3.90;99.90;;;;;;5060351;28;20033;-73
2023/01/17 06:27:25;;;;;;;32.55;13.10;;;3.90;99.90;;;;;;5060072;28;20029;-73
2023/01/17 06:29:50;;;;;;;29.45;14.77;;;3.90;99.90;;;;;;5056186;28;20544;-73
2023/01/17 06:32:16;;;;;;;24.67;13.38;;;4.00;99.90;;;;;;5055331;28;20116;-73
2023/01/17 06:34:41;;;;;;;28.75;13.90;;;4.00;99.90;;;;;;5061173;28;20040;-73
2023/01/17 06:37:07;;;;;;;33.03;13.88;;;4.00;99.90;;;;;;5061079;28;20021;-73
2023/01/17 06:39:33;;;;;;;26.90;13.75;;;3.90;99.90;;;;;;5060569;28;20045;-73
2023/01/17 06:41:58;;;;;;;32.20;15.15;;;3.90;99.90;;;;;;5055666;28;20021;-73
2023/01/17 06:44:25;;;;;;;33.65;14.90;;;3.90;99.90;;;;;;5055624;28;20532;-73
2023/01/17 06:46:51;;;;;;;33.15;15.27;;;4.00;99.90;;;;;;5064047;28;20023;-73
2023/01/17 06:49:17;;;;;;;25.42;13.48;;;4.00;99.90;;;;;;5060007;28;20033;-73
2023/01/17 06:51:42;;;;;;;29.13;14.93;;;4.00;99.90;;;;;;5052087;28;20032;-73
2023/01/17 06:54:08;;;;;;;32.90;16.67;;;3.80;99.90;;;;;;5054422;28;20495;-74
2023/01/17 06:56:34;;;;;;;31.38;15.65;;;3.90;99.90;;;;;;5054493;28;20021;-73
2023/01/17 06:59:00;;;;;;;27.02;13.55;;;3.90;99.90;;;;;;5044342;28;20040;-73
2023/01/17 07:01:25;;;;;;;26.02;13.20;;;3.80;99.90;;;;;;5054581;28;20067;-73
2023/01/17 07:03:53;;;;;;;28.13;13.63;;;3.80;99.90;;;;;;5065676;28;20028;-73
2023/01/17 07:06:19;;;;;;;32.33;15.05;;;3.80;99.90;;;;;;5061345;28;20104;-74
2023/01/17 07:08:46;;;;;;;25.70;14.15;;;3.80;99.90;;;;;;5055584;28;20096;-74
2023/01/17 07:11:12;;;;;;;32.97;15.05;;;3.80;99.90;;;;;;5047564;28;20028;-74
2023/01/17 07:13:38;;;;;;;28.27;13.75;;;3.80;99.90;;;;;;5057404;28;20023;-71
2023/01/17 07:16:04;;;;;;;30.58;14.27;;;3.80;99.90;;;;;;5053842;28;20033;-73
2023/01/17 07:18:31;;;;;;;25.65;14.52;;;3.80;99.90;;;;;;5061080;28;20392;-70
2023/01/17 07:20:56;;;;;;;33.92;14.95;;;3.90;99.90;;;;;;5071719;28;20074;-70
2023/01/17 07:23:23;;;;;;;25.20;13.57;;;3.90;99.90;;;;;;5054708;28;20025;-70
2023/01/17 07:25:52;;;;;;;32.15;14.65;;;3.90;99.90;;;;;;5055594;28;20476;-71
2023/01/17 07:28:18;;;;;;;32.13;16.05;;;3.90;99.90;;;;;;5056328;28;20103;-71
2023/01/17 07:30:43;;;;;;;28.52;14.32;;;3.80;99.90;;;;;;5058890;28;20043;-70
2023/01/17 07:33:09;;;;;;;32.45;16.48;;;3.70;99.90;;;;;;5056430;28;20045;-71
2023/01/17 07:35:36;;;;;;;31.17;14.93;;;3.80;99.90;;;;;;5057873;28;20021;-71
2023/01/17 07:38:02;;;;;;;28.75;14.23;;;3.90;99.90;;;;;;5064058;28;20025;-71
2023/01/17 07:40:28;;;;;;;30.05;15.57;;;3.80;99.90;;;;;;5060651;28;20028;-71
2023/01/17 07:43:00;;;;;;;29.60;14.93;;;3.80;99.90;;;;;;5060858;28;20021;-70
2023/01/17 07:45:26;;;;;;;29.33;13.85;;;3.80;99.90;;;;;;5059337;28;20107;-71
2023/01/17 07:47:55;;;;;;;31.70;14.02;;;3.80;99.90;;;;;;5058319;28;20017;-71
2023/01/17 07:50:20;;;;;;;31.48;14.15;;;3.90;99.90;;;;;;5051448;28;20028;-71
2023/01/17 07:52:49;;;;;;;30.17;14.02;;;3.90;99.90;;;;;;5054298;28;20025;-71
2023/01/17 07:55:15;;;;;;;30.30;14.52;;;3.90;99.90;;;;;;5053415;28;20028;-70
2023/01/17 07:57:40;;;;;;;33.55;14.00;;;3.90;99.90;;;;;;5053398;28;20029;-70
2023/01/17 08:00:08;;;;;;;34.45;15.77;;;4.00;99.90;;;;;;5060036;28;20154;-70
2023/01/17 08:02:33;;;;;;;26.33;15.05;;;3.90;99.90;;;;;;5046588;28;20107;-71
2023/01/17 08:04:59;;;;;;;39.15;16.10;;;3.90;99.90;;;;;;5059147;28;20087;-70
2023/01/17 08:07:24;;;;;;;34.47;16.58;;;3.90;99.90;;;;;;5054326;28;20021;-70
2023/01/17 08:09:50;;;;;;;31.33;16.40;;;3.90;99.90;;;;;;5058358;28;20465;-70
2023/01/17 08:12:16;;;;;;;28.80;15.55;;;3.90;99.90;;;;;;5052447;28;20041;-70
2023/01/17 08:14:42;;;;;;;31.73;15.73;;;3.90;99.90;;;;;;5046473;28;20060;-70
2023/01/17 08:17:15;;;;;;;32.17;16.08;;;3.90;99.90;;;;;;5057818;28;20075;-70
2023/01/17 08:19:42;;;;;;;29.23;14.85;;;3.90;99.90;;;;;;5056834;28;20194;-70
2023/01/17 08:22:08;;;;;;;30.20;14.90;;;3.90;99.90;;;;;;5053920;28;20029;-70
2023/01/17 08:24:34;;;;;;;31.45;14.32;;;3.90;99.90;;;;;;5053248;28;20485;-71
2023/01/17 08:26:59;;;;;;;30.15;14.68;;;3.90;99.90;;;;;;5051157;28;20380;-69
2023/01/17 08:29:25;;;;;;;28.77;14.20;;;3.90;99.90;;;;;;5057641;28;20036;-69
2023/01/17 08:31:51;;;;;;;27.55;14.68;;;3.90;99.90;;;;;;5055069;28;20043;-69
2023/01/17 08:34:17;;;;;;;29.38;15.38;;;4.00;99.90;;;;;;5056744;28;20032;-69
2023/01/17 08:36:43;;;;;;;29.23;14.52;;;4.00;99.90;;;;;;5051993;28;20032;-69
2023/01/17 08:39:11;;;;;;;30.88;14.00;;;4.00;99.90;;;;;;5058118;28;20025;-69
2023/01/17 08:41:37;;;;;;;32.92;14.77;;;4.00;99.90;;;;;;5059136;28;20131;-69
2023/01/17 08:44:03;;;;;;;28.42;15.95;;;4.00;99.90;;;;;;5048952;28;20056;-69
2023/01/17 08:46:29;;;;;;;25.90;13.95;;;4.10;99.90;;;;;;5049640;28;20130;-69
2023/01/17 08:48:57;;;;;;;31.20;14.07;;;4.20;99.90;;;;;;5041427;28;20029;-69
2023/01/17 08:51:25;;;;;;;29.20;15.18;;;4.10;99.90;;;;;;5042931;28;20029;-69
2023/01/17 08:53:51;;;;;;;30.98;14.43;;;4.10;99.90;;;;;;5048047;28;20025;-69
2023/01/17 08:56:17;;;;;;;35.35;15.43;;;4.10;99.90;;;;;;5044599;28;20021;-70
2023/01/17 08:58:43;;;;;;;37.22;14.90;;;4.20;99.90;;;;;;5049797;28;20035;-69
2023/01/17 09:01:09;;;;;;;28.73;14.80;;;4.20;99.90;;;;;;5051422;28;20381;-68
2023/01/17 09:03:35;;;;;;;30.13;14.43;;;4.20;99.90;;;;;;5053348;28;20024;-69
2023/01/17 09:06:01;;;;;;;30.88;14.60;;;4.20;99.90;;;;;;5047971;28;20040;-69
2023/01/17 09:08:26;;;;;;;26.35;14.35;;;4.30;99.90;;;;;;5043482;28;20021;-69
2023/01/17 09:10:52;;;;;;;26.67;15.40;;;4.30;99.90;;;;;;5047713;28;20028;-69
2023/01/17 09:13:17;;;;;;;31.70;15.13;;;4.30;99.90;;;;;;5054457;28;20029;-69
2023/01/17 09:15:43;;;;;;;32.22;17.10;;;4.30;99.90;;;;;;5053198;28;20392;-69
2023/01/17 09:18:09;;;;;;;32.38;15.25;;;4.30;99.90;;;;;;5055534;28;20095;-68
2023/01/17 09:20:34;;;;;;;29.88;14.85;;;4.20;99.90;;;;;;5057082;28;20388;-68
2023/01/17 09:23:03;;;;;;;25.65;13.77;;;4.30;99.90;;;;;;5053751;28;20033;-68
2023/01/17 09:25:28;;;;;;;29.75;14.85;;;4.30;99.90;;;;;;5049897;28;20029;-68
2023/01/17 09:27:54;;;;;;;27.13;14.15;;;4.20;99.90;;;;;;5049952;28;20167;-67
2023/01/17 09:30:20;;;;;;;29.75;13.05;;;4.20;99.90;;;;;;5053249;28;20025;-68
2023/01/17 09:32:53;;;;;;;28.60;12.98;;;4.10;99.90;;;;;;5056898;28;20028;-69
2023/01/17 09:35:19;;;;;;;;;;;4.20;99.90;;;;;;5055552;28;20400;-68
2023/01/17 09:37:48;;;;;;;29.05;12.88;;;4.20;99.90;;;;;;5060126;28;19999;-71
2023/01/17 09:40:19;;;;;;;26.63;14.43;;;4.20;99.90;;;;;;5059793;28;20515;-70
2023/01/17 09:42:47;;;;;;;23.77;12.48;;;4.30;99.90;;;;;;5058325;28;20022;-67
2023/01/17 09:45:17;;;;;;;32.30;13.27;;;4.30;99.90;;;;;;5047949;28;20029;-68
2023/01/17 09:47:53;;;;;;;28.20;13.15;;;4.30;99.90;;;;;;5059094;28;20017;-67
2023/01/17 09:50:24;;;;;;;22.77;12.50;;;4.30;99.90;;;;;;5049601;28;20029;-70
2023/01/17 09:52:59;;;;;;;20.33;11.55;;;4.30;99.90;;;;;;5057708;28;20048;-69
2023/01/17 09:55:27;;;;;;;29.17;14.98;;;4.40;99.90;;;;;;5051631;28;20031;-69
2023/01/17 09:58:01;;;;;;;25.27;12.07;;;4.50;99.90;;;;;;5059452;28;20029;-69
2023/01/17 10:00:29;;;;;;;26.85;12.23;;;4.60;99.90;;;;;;5044819;28;20637;-69
2023/01/17 10:03:20;;;;;;;26.05;13.32;;;4.70;99.90;;;;;;5047709;28;20026;-69
2023/01/17 10:06:06;;;;;;;31.50;13.90;;;4.70;99.90;;;;;;5052339;28;20033;-69
2023/01/17 10:09:06;;;;;;;29.60;12.88;;;4.80;99.90;;;;;;5049694;28;20481;-68
2023/01/17 10:11:47;;;;;;;26.90;12.60;;;4.90;99.90;;;;;;5055711;28;20035;-69
2023/01/17 10:14:22;;;;;;;23.75;12.50;;;4.90;99.90;;;;;;5054376;28;20025;-69
2023/01/17 10:17:01;;;;;;;32.22;13.00;;;4.90;99.90;;;;;;5054140;28;20029;-69
2023/01/17 10:19:38;;;;;;;25.58;12.07;;;4.90;99.90;;;;;;5052515;28;20028;-70
2023/01/17 10:22:22;;;;;;;34.53;13.05;;;5.00;99.90;;;;;;5059821;28;20043;-69
2023/01/17 10:25:13;;;;;;;28.25;11.90;;;5.00;99.90;;;;;;5051469;28;20499;-68
2023/01/17 10:28:03;;;;;;;30.42;13.48;;;5.20;99.90;;;;;;5048406;28;20021;-70
2023/01/17 10:30:35;;;;;;;23.90;12.07;;;5.20;99.90;;;;;;5058422;28;20111;-70
2023/01/17 10:33:13;;;;;;;24.92;12.88;;;5.30;99.90;;;;;;5061788;28;20485;-68
2023/01/17 10:35:50;;;;;;;25.52;11.80;;;5.30;99.90;;;;;;5051863;28;20465;-69
2023/01/17 10:38:17;;;;;;;28.00;12.27;;;5.40;99.90;;;;;;5063814;28;20090;-70
2023/01/17 10:40:51;;;;;;;22.75;12.60;;;5.30;99.90;;;;;;5051636;28;20039;-69
2023/01/17 10:43:30;;;;;;;22.65;11.98;;;5.30;99.90;;;;;;5058871;28;20025;-69
2023/01/17 10:45:56;;;;;;;27.48;12.38;;;5.30;99.90;;;;;;5061246;28;20027;-69
2023/01/17 10:48:44;;;;;;;20.90;11.00;;;5.50;99.90;;;;;;5045934;28;20489;-69
2023/01/17 10:51:50;;;;;;;22.45;12.13;;;5.40;99.90;;;;;;5047225;28;20109;-72
2023/01/17 10:54:28;;;;;;;21.60;11.20;;;5.40;99.90;;;;;;5044807;28;20049;-71
2023/01/17 10:56:53;;;;;;;21.92;11.13;;;5.40;99.90;;;;;;5052063;28;20489;-70
2023/01/17 10:59:32;;;;;;;26.48;12.55;;;5.40;99.90;;;;;;5043963;28;20021;-70
2023/01/17 11:02:05;;;;;;;22.55;11.77;;;5.40;99.90;;;;;;5051164;28;20032;-68
2023/01/17 11:04:37;;;;;;;25.25;11.85;;;5.40;99.90;;;;;;5056004;28;20021;-69
2023/01/17 11:07:16;;;;;;;21.88;9.82;;;5.40;99.90;;;;;;5049244;28;20027;-69
2023/01/17 11:09:44;;;;;;;21.25;10.73;;;5.50;99.90;;;;;;5051769;28;20028;-69
2023/01/17 11:12:27;;;;;;;21.00;10.75;;;5.60;99.90;;;;;;5051619;28;20024;-71
2023/01/17 11:14:58;;;;;;;;;;;5.60;99.90;;;;;;5055376;28;20021;-71
2023/01/17 11:17:26;;;;;;;25.90;11.82;;;5.50;99.90;;;;;;5049465;28;19908;-71
2023/01/17 11:19:53;;;;;;;28.60;12.60;;;5.50;99.90;;;;;;5050434;28;20044;-71
2023/01/17 11:22:19;;;;;;;23.00;11.05;;;5.60;99.90;;;;;;5061618;28;20020;-71
2023/01/17 11:24:50;;;;;;;21.50;10.75;;;5.60;99.90;;;;;;5048122;28;20033;-72
2023/01/17 11:27:28;;;;;;;25.73;10.95;;;5.50;99.90;;;;;;5055902;28;20029;-71
2023/01/17 11:30:20;;;;;;;19.75;11.23;;;5.50;99.90;;;;;;5067066;28;20026;-71
2023/01/17 11:33:05;;;;;;;17.35;8.80;;;5.60;99.90;;;;;;5060842;28;20025;-71
2023/01/17 11:35:36;;;;;;;20.30;8.65;;;5.60;99.90;;;;;;5050378;28;20033;-71
2023/01/17 11:38:01;;;;;;;20.83;9.25;;;5.60;99.90;;;;;;5052328;28;20028;-71
2023/01/17 11:40:33;;;;;;;18.98;8.55;;;5.60;99.90;;;;;;5059620;28;20106;-71
2023/01/17 11:43:17;;;;;;;18.75;9.90;;;5.60;99.90;;;;;;5047572;28;20481;-71
2023/01/17 11:45:44;;;;;;;19.25;8.55;;;5.60;99.90;;;;;;5058271;28;20028;-71
2023/01/17 11:48:13;;;;;;;19.92;7.90;;;5.60;99.90;;;;;;5051374;28;20018;-72
2023/01/17 11:50:40;;;;;;;22.30;8.40;;;5.50;99.90;;;;;;5050309;28;20476;-72
2023/01/17 11:53:26;;;;;;;17.58;9.02;;;5.60;99.90;;;;;;5059508;28;20074;-71
2023/01/17 11:56:16;;;;;;;20.33;9.25;;;5.50;99.90;;;;;;5049830;28;20033;-71
2023/01/17 11:58:44;;;;;;;17.58;7.75;;;5.70;99.90;;;;;;5062096;28;20078;-72
2023/01/17 12:01:29;;;;;;;17.42;8.52;;;5.70;99.90;;;;;;5053062;28;20026;-71
2023/01/17 12:04:15;;;;;;;21.35;10.05;;;5.70;99.90;;;;;;5049276;28;20489;-71
2023/01/17 12:06:41;;;;;;;12.80;7.00;;;5.80;99.90;;;;;;5047454;28;20484;-71
2023/01/17 12:09:21;;;;;;;19.67;8.82;;;5.50;99.90;;;;;;5054423;28;20025;-72
2023/01/17 12:15:46;;;;;;;16.33;9.02;;;5.60;99.90;;;;;;5065751;28;20043;-72
2023/01/17 12:18:52;;;;;;;18.63;9.27;;;5.70;99.90;;;;;;5064184;28;20058;-71
2023/01/17 12:21:45;;;;;;;20.20;8.20;;;5.80;99.90;;;;;;5053172;28;20045;-71
2023/01/17 12:24:23;;;;;;;;;;;5.80;99.90;;;;;;5041428;28;20414;-72
2023/01/17 12:26:57;;;;;;;19.77;7.88;;;5.80;99.90;;;;;;5054105;28;19948;-71
2023/01/17 12:29:34;;;;;;;16.10;8.10;;;5.90;99.90;;;;;;5050831;28;20025;-71
2023/01/17 12:32:12;;;;;;;17.35;9.07;;;5.90;99.90;;;;;;5051368;28;20104;-71
2023/01/17 12:35:12;;;;;;;20.27;8.70;;;5.80;99.90;;;;;;5043694;28;20047;-72
2023/01/17 12:37:42;;;;;;;22.00;8.73;;;5.90;99.90;;;;;;5053295;28;20669;-71
2023/01/17 12:40:22;;;;;;;14.98;8.02;;;5.80;99.90;;;;;;5045313;28;20036;-71
2023/01/17 12:43:07;;;;;;;23.23;8.38;;;5.90;99.90;;;;;;5052096;28;20108;-71
2023/01/17 12:45:41;;;;;;;14.10;7.15;;;5.90;99.90;;;;;;5048751;28;20017;-71
2023/01/17 12:48:17;;;;;;;12.38;7.10;;;5.90;99.90;;;;;;5045851;28;20020;-71
2023/01/17 12:50:56;;;;;;;17.02;7.65;;;5.80;99.90;;;;;;5050522;28;20091;-71
2023/01/17 12:53:40;;;;;;;18.55;8.13;;;5.80;99.90;;;;;;5056337;28;20025;-71
2023/01/17 12:56:21;;;;;;;18.10;8.05;;;5.90;99.90;;;;;;5051528;28;20032;-71
2023/01/17 12:58:53;;;;;;;14.98;7.70;;;5.90;99.90;;;;;;5060762;28;20082;-71
2023/01/17 13:01:28;;;;;;;17.52;8.35;;;5.90;99.90;;;;;;5051811;28;22035;-71
2023/01/17 13:04:03;;;;;;;12.77;7.43;;;5.90;99.90;;;;;;5045536;28;20044;-72
2023/01/17 13:06:49;;;;;;;17.30;8.20;;;6.00;99.90;;;;;;5058215;28;20373;-71
2023/01/17 13:09:19;;;;;;;12.95;6.20;;;5.90;99.90;;;;;;5066576;28;20022;-71
2023/01/17 13:12:00;;;;;;;7.40;4.70;;;5.80;99.90;;;;;;5061856;28;20025;-71
2023/01/17 13:14:26;;;;;;;10.68;5.60;;;5.80;99.90;;;;;;5058076;28;20029;-71
2023/01/17 13:16:59;;;;;;;9.50;4.13;;;5.80;99.90;;;;;;5048275;28;20502;-71
2023/01/17 13:19:24;;;;;;;;;;;5.80;99.90;;;;;;5056731;28;20033;-71
2023/01/17 13:21:51;;;;;;;11.13;4.88;;;5.90;99.90;;;;;;5058409;28;19920;-71
2023/01/17 13:24:37;;;;;;;13.40;6.22;;;6.00;99.90;;;;;;5049608;28;20111;-71
2023/01/17 13:27:14;;;;;;;12.55;4.78;;;6.00;99.90;;;;;;5043783;28;20014;-72
2023/01/17 13:29:47;;;;;;;8.85;4.68;;;6.10;99.90;;;;;;5048886;28;20052;-71
2023/01/17 13:32:37;;;;;;;14.10;5.78;;;6.10;99.90;;;;;;5043688;28;20034;-71
2023/01/17 13:35:16;;;;;;;14.50;5.65;;;6.10;99.90;;;;;;5048234;28;20040;-71
2023/01/17 13:38:02;;;;;;;7.90;3.95;;;6.00;99.90;;;;;;5046892;28;20048;-71
2023/01/17 13:40:33;;;;;;;8.65;4.00;;;6.00;99.90;;;;;;5051621;28;20102;-71
2023/01/17 13:43:01;;;;;;;8.27;4.15;;;6.00;99.90;;;;;;5046491;28;20033;-71
2023/01/17 13:45:33;;;;;;;10.50;3.42;;;6.00;99.90;;;;;;5047814;28;20032;-71
2023/01/17 13:48:20;;;;;;;13.77;4.35;;;6.00;99.90;;;;;;5053568;28;20017;-73
2023/01/17 13:51:05;;;;;;;12.52;5.13;;;6.00;99.90;;;;;;5045740;28;20041;-71
2023/01/17 13:53:33;;;;;;;9.57;2.80;;;6.00;99.90;;;;;;5055296;28;20028;-71
2023/01/17 13:56:17;;;;;;;11.80;2.65;;;6.00;99.90;;;;;;5042249;28;20480;-72
2023/01/17 13:58:49;;;;;;;9.73;3.15;;;6.00;99.90;;;;;;5052451;28;20027;-72
2023/01/17 14:01:37;;;;;;;9.73;3.40;;;6.00;99.90;;;;;;5057480;28;20079;-72
2023/01/17 14:04:10;;;;;;;9.48;3.05;;;6.00;99.90;;;;;;5053990;28;20568;-71
2023/01/17 14:06:43;;;;;;;8.95;2.35;;;5.90;99.90;;;;;;5066572;28;20021;-72
2023/01/17 14:09:15;;;;;;;9.63;2.67;;;5.90;99.90;;;;;;5055061;28;20040;-71
2023/01/17 14:12:05;;;;;;;7.63;2.80;;;6.00;99.90;;;;;;5056253;28;20028;-71
2023/01/17 14:14:40;;;;;;;9.73;3.25;;;6.00;99.90;;;;;;5055311;28;20021;-73
2023/01/17 14:17:15;;;;;;;13.00;4.75;;;5.90;99.90;;;;;;5052260;28;20373;-72
2023/01/17 14:19:51;;;;;;;13.73;3.47;;;5.80;99.90;;;;;;5056236;28;20036;-72
2023/01/17 14:22:19;;;;;;;8.35;3.38;;;5.90;99.90;;;;;;5061419;28;20025;-73
2023/01/17 14:25:01;;;;;;;12.50;3.72;;;5.90;99.90;;;;;;5054304;28;20036;-72
2023/01/17 14:27:33;;;;;;;14.50;4.20;;;5.90;99.90;;;;;;5055331;28;20392;-72